CheckWX is a tool to help pilots better visualize weather data.  It is not intended as a substitute for an official pre-flight weather briefing.

18:36:26 UTC

ESNN METAR
Sundsvall-Härnösand Airport
Sundsvall/ Härnösand, Sweden
Current

16 mins ago

ESNN 171820Z 16003KT CAVOK M01/M05 Q1019 R16/71//95
Observed
Feb-17 @ 18:20 UTC
Wind
  • 160° at 3 KTS
Visibility
10,000+ meters
Flight Rules
VFR
Cloud Levels
  • Clear skies
Temperature
-1°C / 30°F
Dewpoint
-5°C / 23°F
Humidity
75%
Altimeter
30.09" Hg
Pressure
1018.92 hPa
Previous

46 mins ago

ESNN 171750Z 11004KT CAVOK M03/M06 Q1018 R16/71//95
Observed
Feb-17 @ 17:50 UTC
Wind
  • 110° at 4 KTS
Visibility
10,000+ meters
Flight Rules
VFR
Cloud Levels
  • Clear skies
Temperature
-3°C / 27°F
Dewpoint
-6°C / 21°F
Humidity
80%
Altimeter
30.06" Hg
Pressure
1017.92 hPa
Previous

1 hour ago

ESNN 171720Z 19001KT CAVOK M03/M05 Q1019 R16/71//95
Observed
Feb-17 @ 17:20 UTC
Wind
  • 190° at 1 KTS
Visibility
10,000+ meters
Flight Rules
VFR
Cloud Levels
  • Clear skies
Temperature
-3°C / 27°F
Dewpoint
-5°C / 23°F
Humidity
86%
Altimeter
30.09" Hg
Pressure
1018.92 hPa